Time;durP1;ratioP1;P1;durP2;ratioP2;P2;SDS_P1;SDS_P2;PMS_P1;PMS_P2;Temp;Humidity;BMP_temperature;BMP_pressure;BME280_temperature;BME280_humidity;BME280_pressure;Samples;Min_cycle;Max_cycle;Signal;HPM_P1;HPM_P2
2022/06/15 00:00:32;;;;;;;6.07;5.60;;;16.70;99.90;;;;;;5071204;28;20460;-82
2022/06/15 00:02:58;;;;;;;5.23;4.80;;;16.70;99.90;;;;;;5062760;28;20455;-80
2022/06/15 00:05:27;;;;;;;5.87;4.97;;;16.70;99.90;;;;;;5058866;28;20454;-80
2022/06/15 00:07:54;;;;;;;6.10;5.50;;;16.60;99.90;;;;;;5072677;28;20481;-80
2022/06/15 00:10:20;;;;;;;6.13;5.13;;;16.60;99.90;;;;;;5072658;28;20457;-81
2022/06/15 00:12:47;;;;;;;7.70;6.30;;;16.60;99.90;;;;;;5058856;28;20461;-81
2022/06/15 00:15:14;;;;;;;5.43;5.03;;;16.50;99.90;;;;;;5052291;28;20523;-81
2022/06/15 00:17:41;;;;;;;6.93;6.03;;;16.40;99.90;;;;;;5062624;28;20460;-82
2022/06/15 00:20:11;;;;;;;6.53;5.40;;;16.40;99.90;;;;;;5071329;28;20513;-81
2022/06/15 00:22:40;;;;;;;5.83;5.33;;;16.30;99.90;;;;;;5061170;28;20455;-82
2022/06/15 00:25:07;;;;;;;5.13;4.77;;;16.30;99.90;;;;;;5051318;28;20474;-81
2022/06/15 00:27:34;;;;;;;8.33;6.67;;;16.20;99.90;;;;;;5059873;28;20496;-80
2022/06/15 00:30:01;;;;;;;5.03;4.53;;;16.10;99.90;;;;;;5071482;28;20477;-82
2022/06/15 00:32:28;;;;;;;6.83;6.17;;;16.00;99.90;;;;;;5062645;28;20454;-81
2022/06/15 00:34:55;;;;;;;5.60;5.00;;;15.90;99.90;;;;;;5051527;28;20655;-82
2022/06/15 00:37:21;;;;;;;7.13;5.60;;;15.90;99.90;;;;;;5058469;28;20458;-81
2022/06/15 00:39:49;;;;;;;5.80;5.27;;;15.80;99.90;;;;;;5070304;28;20469;-81
2022/06/15 00:42:17;;;;;;;7.10;6.43;;;15.80;99.90;;;;;;5058772;28;20460;-81
2022/06/15 00:44:44;;;;;;;6.40;5.93;;;15.80;99.90;;;;;;5050570;28;20460;-80
2022/06/15 00:47:18;;;;;;;6.57;5.97;;;15.80;99.90;;;;;;5059323;28;20451;-80
2022/06/15 00:49:50;;;;;;;5.60;5.20;;;15.80;99.90;;;;;;5062006;28;20485;-81
2022/06/15 00:52:22;;;;;;;9.60;5.60;;;15.70;99.90;;;;;;5049311;28;20446;-81
2022/06/15 00:54:51;;;;;;;6.97;6.37;;;15.70;99.90;;;;;;5056824;28;20458;-81
2022/06/15 00:57:18;;;;;;;6.17;5.60;;;15.70;99.90;;;;;;5053726;28;20454;-81
2022/06/15 00:59:52;;;;;;;6.53;5.87;;;15.70;99.90;;;;;;5055883;28;20482;-81
2022/06/15 01:02:19;;;;;;;6.87;6.27;;;15.60;99.90;;;;;;5069266;28;20453;-81
2022/06/15 01:04:50;;;;;;;6.17;5.67;;;15.60;99.90;;;;;;5059295;28;20827;-81
2022/06/15 01:07:38;;;;;;;6.67;6.17;;;15.60;99.90;;;;;;5049975;28;20455;-81
2022/06/15 01:10:13;;;;;;;6.03;5.47;;;15.60;99.90;;;;;;5060070;28;20488;-81
2022/06/15 01:12:48;;;;;;;5.67;5.13;;;15.60;99.90;;;;;;5069652;28;20478;-81
2022/06/15 01:15:36;;;;;;;6.53;6.03;;;15.50;99.90;;;;;;5055500;28;20461;-80
2022/06/15 01:18:18;;;;;;;6.30;5.57;;;15.50;99.90;;;;;;5049788;28;20486;-81
2022/06/15 01:20:56;;;;;;;7.73;7.00;;;15.50;99.90;;;;;;5065298;28;20460;-81
2022/06/15 01:23:51;;;;;;;7.63;6.93;;;15.60;99.90;;;;;;5069098;28;20998;-80
2022/06/15 01:26:47;;;;;;;7.30;6.17;;;15.50;99.90;;;;;;5028976;28;20444;-81
2022/06/15 01:29:31;;;;;;;6.63;6.13;;;15.50;99.90;;;;;;5037184;28;20476;-81
2022/06/15 01:32:08;;;;;;;6.77;6.17;;;15.40;99.90;;;;;;5069539;28;20451;-81
2022/06/15 01:34:44;;;;;;;5.53;5.00;;;15.40;99.90;;;;;;5067740;28;20550;-80
2022/06/15 01:37:18;;;;;;;5.97;5.47;;;15.50;99.90;;;;;;5067318;28;20497;-80
2022/06/15 01:39:49;;;;;;;8.63;6.13;;;15.40;99.90;;;;;;5050139;28;20475;-81
2022/06/15 01:42:21;;;;;;;7.77;5.70;;;15.40;99.90;;;;;;5051498;28;20470;-81
2022/06/15 01:44:53;;;;;;;6.47;5.97;;;15.40;99.90;;;;;;5064968;28;20867;-81
2022/06/15 01:47:25;;;;;;;6.70;6.20;;;15.30;99.90;;;;;;5051954;28;20456;-81
2022/06/15 01:49:57;;;;;;;7.90;7.10;;;15.30;99.90;;;;;;5069433;28;20871;-81
2022/06/15 01:52:27;;;;;;;9.90;6.20;;;15.30;99.90;;;;;;5066345;28;20510;-80
2022/06/15 01:54:59;;;;;;;8.20;7.50;;;15.20;99.90;;;;;;5054403;28;20450;-81
2022/06/15 01:57:29;;;;;;;7.00;6.40;;;15.00;99.90;;;;;;5067281;28;20460;-81
2022/06/15 02:00:01;;;;;;;6.50;5.90;;;14.90;99.90;;;;;;5069332;28;20490;-81
2022/06/15 02:02:40;;;;;;;7.33;6.63;;;14.90;99.90;;;;;;5054431;28;20481;-81
2022/06/15 02:05:09;;;;;;;7.70;7.00;;;14.90;99.90;;;;;;5055548;28;20447;-80
2022/06/15 02:07:45;;;;;;;6.13;5.73;;;14.90;99.90;;;;;;5067405;28;20454;-80
2022/06/15 02:10:19;;;;;;;6.90;6.30;;;14.90;99.90;;;;;;5068461;28;20481;-80
2022/06/15 02:12:50;;;;;;;8.23;6.50;;;14.90;99.90;;;;;;5065904;28;20446;-80
2022/06/15 02:15:20;;;;;;;7.70;6.53;;;14.90;99.90;;;;;;5056633;28;20461;-79
2022/06/15 02:17:49;;;;;;;6.70;6.17;;;14.90;99.90;;;;;;5065475;28;20453;-81
2022/06/15 02:20:20;;;;;;;6.40;5.70;;;14.80;99.90;;;;;;5048694;28;20442;-81
2022/06/15 02:22:49;;;;;;;6.70;6.13;;;14.90;99.90;;;;;;5051221;28;20459;-81
2022/06/15 02:25:20;;;;;;;8.57;6.00;;;14.90;99.90;;;;;;5061834;28;20449;-80
2022/06/15 02:27:47;;;;;;;6.47;5.87;;;14.80;99.90;;;;;;5050573;28;20517;-81
2022/06/15 02:30:18;;;;;;;6.23;5.73;;;14.80;99.90;;;;;;5068717;28;20450;-80
2022/06/15 02:32:49;;;;;;;6.00;5.50;;;14.80;99.90;;;;;;5067858;28;20447;-80
2022/06/15 02:35:18;;;;;;;6.30;5.73;;;14.80;99.90;;;;;;5055787;28;20516;-81
2022/06/15 02:37:45;;;;;;;5.53;5.03;;;14.70;99.90;;;;;;5051854;28;20453;-81
2022/06/15 02:40:15;;;;;;;7.40;6.10;;;14.70;99.90;;;;;;5048195;28;20482;-80
2022/06/15 02:42:42;;;;;;;6.60;6.10;;;14.70;99.90;;;;;;5064663;28;20459;-80
2022/06/15 02:45:13;;;;;;;6.53;5.97;;;14.70;99.90;;;;;;5062960;28;20455;-80
2022/06/15 02:47:42;;;;;;;6.27;5.70;;;14.70;99.90;;;;;;5049146;28;20458;-80
2022/06/15 02:50:13;;;;;;;7.47;6.87;;;14.60;99.90;;;;;;5060957;28;20481;-80
2022/06/15 02:52:44;;;;;;;8.20;6.07;;;14.60;99.90;;;;;;5068780;28;20453;-80
2022/06/15 02:55:13;;;;;;;6.40;5.77;;;14.60;99.90;;;;;;5066837;28;20461;-80
2022/06/15 02:57:45;;;;;;;6.43;5.83;;;14.60;99.90;;;;;;5051152;28;20515;-81
2022/06/15 03:00:13;;;;;;;6.20;5.70;;;14.50;99.90;;;;;;5061652;28;20641;-78
2022/06/15 03:02:40;;;;;;;8.60;5.53;;;14.50;99.90;;;;;;5066221;28;20448;-81
2022/06/15 03:05:07;;;;;;;8.20;6.23;;;14.50;99.90;;;;;;5053729;28;20460;-81
2022/06/15 03:07:36;;;;;;;5.40;5.00;;;14.50;99.90;;;;;;5055719;28;20512;-81
2022/06/15 03:10:02;;;;;;;6.10;5.60;;;14.40;99.90;;;;;;5048549;28;20475;-81
2022/06/15 03:12:29;;;;;;;6.97;6.00;;;14.40;99.90;;;;;;5037392;28;20460;-80
2022/06/15 03:14:56;;;;;;;6.17;5.60;;;14.40;99.90;;;;;;5043283;28;20456;-80
2022/06/15 03:17:22;;;;;;;6.30;5.80;;;14.40;99.90;;;;;;5055850;28;20447;-81
2022/06/15 03:19:49;;;;;;;6.03;5.53;;;14.30;99.90;;;;;;5054547;28;20494;-80
2022/06/15 03:22:16;;;;;;;7.57;6.67;;;14.30;99.90;;;;;;5045838;28;20467;-80
2022/06/15 03:24:44;;;;;;;6.83;6.23;;;14.30;99.90;;;;;;5035535;28;20454;-80
2022/06/15 03:27:11;;;;;;;6.70;5.97;;;14.30;99.90;;;;;;5035889;28;20458;-80
2022/06/15 03:29:37;;;;;;;6.63;6.03;;;14.30;99.90;;;;;;5040394;28;20468;-80
2022/06/15 03:32:05;;;;;;;5.43;4.93;;;14.30;99.90;;;;;;5056044;28;20458;-80
2022/06/15 03:34:32;;;;;;;7.17;6.57;;;14.30;99.90;;;;;;5055949;28;21109;-80
2022/06/15 03:36:59;;;;;;;9.60;7.10;;;14.30;99.90;;;;;;5039627;28;20829;-80
2022/06/15 03:39:25;;;;;;;6.70;6.20;;;14.20;99.90;;;;;;5039202;28;20492;-80
2022/06/15 03:41:53;;;;;;;7.47;6.00;;;14.20;99.90;;;;;;5039059;28;20458;-80
2022/06/15 03:44:20;;;;;;;5.90;5.40;;;14.20;99.90;;;;;;5039210;28;20446;-80
2022/06/15 03:46:47;;;;;;;7.20;6.23;;;14.20;99.90;;;;;;5039146;28;20910;-80
2022/06/15 03:49:15;;;;;;;8.13;6.50;;;14.20;99.90;;;;;;5054114;28;20475;-80
2022/06/15 03:51:42;;;;;;;6.30;5.80;;;14.20;99.90;;;;;;5049784;28;20461;-80
2022/06/15 03:54:09;;;;;;;7.33;6.03;;;14.20;99.90;;;;;;5039236;28;21271;-80
2022/06/15 03:56:44;;;;;;;7.10;6.50;;;14.20;99.90;;;;;;5046275;28;20545;-80
2022/06/15 03:59:13;;;;;;;6.73;6.13;;;14.20;99.90;;;;;;5058484;28;20585;-81
2022/06/15 04:01:40;;;;;;;6.47;5.77;;;14.20;99.90;;;;;;5050547;28;20451;-81
2022/06/15 04:04:06;;;;;;;7.50;6.90;;;14.20;99.90;;;;;;5041754;28;20454;-83
2022/06/15 04:06:34;;;;;;;7.00;6.17;;;14.30;99.90;;;;;;5047649;28;20455;-83
2022/06/15 04:09:00;;;;;;;7.10;6.50;;;14.30;99.90;;;;;;5057299;28;20522;-83
2022/06/15 04:14:13;;;;;;;7.13;6.50;;;14.20;99.90;;;;;;5043761;28;20242;-83
2022/06/15 04:16:40;;;;;;;8.27;6.60;;;14.20;99.90;;;;;;5060561;28;20461;-84
2022/06/15 04:19:08;;;;;;;6.63;6.20;;;14.30;99.90;;;;;;5059838;28;20493;-83
2022/06/15 04:21:35;;;;;;;6.70;6.10;;;14.30;99.90;;;;;;5052426;28;20459;-82
2022/06/15 04:24:02;;;;;;;6.70;6.00;;;14.30;99.90;;;;;;5059301;28;20455;-83
2022/06/15 04:26:29;;;;;;;6.70;6.00;;;14.40;99.90;;;;;;5060483;28;20454;-82
2022/06/15 04:28:56;;;;;;;6.90;6.40;;;14.40;99.90;;;;;;5043019;28;20477;-83
2022/06/15 04:31:24;;;;;;;6.77;6.17;;;14.50;99.90;;;;;;5045172;28;20465;-83
2022/06/15 04:33:51;;;;;;;7.10;6.50;;;14.50;99.90;;;;;;5049891;28;20829;-83
2022/06/15 04:36:17;;;;;;;7.13;6.60;;;14.60;99.90;;;;;;5045648;28;20450;-82
2022/06/15 04:38:44;;;;;;;7.10;6.40;;;14.60;99.90;;;;;;5050075;28;20482;-84
2022/06/15 04:41:11;;;;;;;7.60;6.90;;;14.60;99.90;;;;;;5055884;28;20459;-83
2022/06/15 04:43:38;;;;;;;6.97;6.43;;;14.50;99.90;;;;;;5060131;28;20453;-83
2022/06/15 04:46:04;;;;;;;7.70;6.97;;;14.60;99.90;;;;;;5043613;28;20451;-83
2022/06/15 04:48:32;;;;;;;7.50;5.93;;;14.50;99.90;;;;;;5039948;28;20508;-83
2022/06/15 04:51:10;;;;;;;7.83;7.17;;;14.60;99.90;;;;;;5040141;28;20640;-83
2022/06/15 04:53:37;;;;;;;7.83;7.13;;;14.70;99.90;;;;;;5047430;28;20456;-83
2022/06/15 04:56:03;;;;;;;7.40;6.80;;;14.80;99.90;;;;;;5060734;28;20452;-83
2022/06/15 04:58:30;;;;;;;6.33;5.93;;;14.90;99.90;;;;;;5045867;28;20475;-83
2022/06/15 05:00:57;;;;;;;6.53;5.90;;;15.00;99.90;;;;;;5039719;28;20451;-83
2022/06/15 05:03:24;;;;;;;8.47;7.07;;;15.10;99.90;;;;;;5051776;28;20451;-83
2022/06/15 05:05:55;;;;;;;6.60;6.00;;;15.00;99.90;;;;;;5052576;28;20447;-83
2022/06/15 05:08:21;;;;;;;5.70;5.27;;;15.20;99.90;;;;;;5040244;28;20477;-83
2022/06/15 05:10:48;;;;;;;6.60;5.97;;;15.30;99.90;;;;;;5043637;28;20455;-83
2022/06/15 05:13:15;;;;;;;5.67;5.13;;;15.30;99.90;;;;;;5055390;28;20489;-79
2022/06/15 05:15:42;;;;;;;9.33;7.10;;;15.40;99.90;;;;;;5063984;28;20457;-79
2022/06/15 05:18:09;;;;;;;6.10;5.63;;;15.50;99.90;;;;;;5078930;28;20447;-79
2022/06/15 05:20:37;;;;;;;7.00;6.40;;;15.60;99.90;;;;;;5075275;28;20486;-79
2022/06/15 05:23:05;;;;;;;7.10;6.50;;;15.70;99.90;;;;;;5052953;28;20446;-84
2022/06/15 05:25:32;;;;;;;6.50;5.40;;;15.70;99.90;;;;;;5048806;28;20654;-82
2022/06/15 05:27:59;;;;;;;6.20;5.60;;;15.80;99.90;;;;;;5057147;28;20456;-84
2022/06/15 05:30:26;;;;;;;6.60;6.00;;;16.00;99.90;;;;;;5048532;28;20450;-84
2022/06/15 05:32:52;;;;;;;6.27;5.67;;;16.10;99.90;;;;;;5055363;28;20457;-83
2022/06/15 05:35:19;;;;;;;7.53;6.00;;;16.30;99.90;;;;;;5054876;28;20461;-84
2022/06/15 05:37:46;;;;;;;6.37;5.87;;;16.40;99.90;;;;;;5045845;28;20455;-84
2022/06/15 05:40:14;;;;;;;8.13;5.13;;;16.50;99.90;;;;;;5045467;28;20491;-83
2022/06/15 05:42:41;;;;;;;6.77;6.13;;;16.70;99.90;;;;;;5042836;28;20455;-84
2022/06/15 05:45:09;;;;;;;7.87;5.83;;;16.70;99.90;;;;;;5060088;28;20455;-84
2022/06/15 05:47:35;;;;;;;5.37;4.93;;;16.80;99.90;;;;;;5059961;28;20478;-84
2022/06/15 05:50:02;;;;;;;6.07;5.30;;;17.00;99.90;;;;;;5058809;28;20471;-84
2022/06/15 05:52:29;;;;;;;7.17;6.57;;;17.10;99.90;;;;;;5059167;28;20451;-83
2022/06/15 05:54:58;;;;;;;6.40;5.80;;;17.20;99.90;;;;;;5041284;28;20426;-83
2022/06/15 05:57:27;;;;;;;5.83;5.33;;;17.30;99.90;;;;;;5040262;28;20452;-81
2022/06/15 05:59:56;;;;;;;6.93;6.30;;;17.40;99.90;;;;;;5058403;28;20490;-81
2022/06/15 06:02:25;;;;;;;6.17;5.77;;;17.60;99.90;;;;;;5061485;28;20960;-83
2022/06/15 06:04:52;;;;;;;6.17;4.63;;;17.60;99.90;;;;;;5046845;28;20448;-82
2022/06/15 06:07:19;;;;;;;5.80;5.00;;;17.70;99.90;;;;;;5042737;28;20456;-81
2022/06/15 06:09:46;;;;;;;6.50;5.93;;;17.80;99.90;;;;;;5051081;28;20479;-81
2022/06/15 06:12:13;;;;;;;5.13;4.73;;;17.90;99.90;;;;;;5057049;28;20467;-81
2022/06/15 06:14:42;;;;;;;5.23;4.80;;;18.10;99.90;;;;;;5042540;28;20955;-81
2022/06/15 06:17:09;;;;;;;6.30;5.23;;;18.10;99.90;;;;;;5041744;28;20483;-83
2022/06/15 06:19:36;;;;;;;7.93;5.30;;;18.20;99.90;;;;;;5041108;28;20481;-79
2022/06/15 06:22:03;;;;;;;5.43;5.03;;;18.40;99.90;;;;;;5051231;28;20456;-80
2022/06/15 06:24:30;;;;;;;9.53;6.30;;;18.50;99.90;;;;;;5057260;28;20459;-83
2022/06/15 06:27:00;;;;;;;6.07;5.47;;;18.50;99.90;;;;;;5053225;28;20806;-81
2022/06/15 06:29:29;;;;;;;6.23;5.20;;;18.60;99.90;;;;;;5050686;28;20471;-80
2022/06/15 06:31:59;;;;;;;6.00;5.40;;;18.70;99.90;;;;;;5037573;28;20453;-83
2022/06/15 06:34:29;;;;;;;6.57;5.90;;;18.80;99.90;;;;;;5040858;28;20453;-83
2022/06/15 06:36:56;;;;;;;5.53;5.07;;;19.00;99.90;;;;;;5040212;28;20460;-83
2022/06/15 06:39:27;;;;;;;6.70;5.90;;;19.10;99.90;;;;;;5047872;28;20487;-85
2022/06/15 06:41:54;;;;;;;8.30;6.20;;;19.10;99.90;;;;;;5061086;28;20999;-83
2022/06/15 06:44:21;;;;;;;6.40;5.73;;;19.20;99.90;;;;;;5053753;28;20454;-86
2022/06/15 06:46:50;;;;;;;6.27;5.67;;;19.30;99.90;;;;;;5041616;28;20456;-84
2022/06/15 06:49:19;;;;;;;7.13;5.60;;;19.40;99.90;;;;;;5041626;28;20493;-82
2022/06/15 06:51:47;;;;;;;7.97;5.67;;;19.50;99.90;;;;;;5037997;28;20429;-83
2022/06/15 06:54:16;;;;;;;6.13;5.63;;;19.50;99.90;;;;;;5038895;28;20441;-83
2022/06/15 06:56:43;;;;;;;5.20;4.50;;;19.60;99.90;;;;;;5036529;28;20464;-83
2022/06/15 06:59:12;;;;;;;6.13;5.53;;;19.70;99.40;;;;;;5038707;28;21007;-84
2022/06/15 07:01:41;;;;;;;6.03;4.83;;;19.80;99.60;;;;;;5039439;28;20443;-83
2022/06/15 07:04:09;;;;;;;5.43;5.03;;;19.90;99.40;;;;;;5044751;28;20464;-84
2022/06/15 07:06:37;;;;;;;6.27;5.67;;;19.90;98.60;;;;;;5046565;28;20452;-83
2022/06/15 07:09:04;;;;;;;5.63;5.10;;;20.00;98.10;;;;;;5046752;28;20481;-85
2022/06/15 07:11:31;;;;;;;7.00;5.13;;;20.10;98.30;;;;;;5046825;28;20440;-85
2022/06/15 07:13:58;;;;;;;6.90;5.10;;;20.10;98.30;;;;;;5048863;28;20445;-84
2022/06/15 07:16:25;;;;;;;6.27;5.60;;;20.30;98.40;;;;;;5047082;28;20810;-81
2022/06/15 07:18:52;;;;;;;5.87;5.20;;;20.40;98.50;;;;;;5060087;28;20474;-83
2022/06/15 07:21:21;;;;;;;7.20;4.87;;;20.40;98.20;;;;;;5065051;28;20542;-82
2022/06/15 07:23:51;;;;;;;10.03;5.27;;;20.60;98.20;;;;;;5057127;28;20452;-82
2022/06/15 07:26:22;;;;;;;5.83;4.80;;;20.60;97.90;;;;;;5055028;28;20447;-81
2022/06/15 07:28:50;;;;;;;6.50;5.67;;;20.60;98.00;;;;;;5064946;28;20472;-79
2022/06/15 07:31:22;;;;;;;5.47;5.07;;;20.80;97.80;;;;;;5048436;28;20454;-80
2022/06/15 07:33:48;;;;;;;6.07;5.40;;;20.90;97.10;;;;;;5052115;28;20458;-81
2022/06/15 07:36:15;;;;;;;6.30;5.10;;;20.90;98.00;;;;;;5066830;28;20455;-81
2022/06/15 07:38:42;;;;;;;5.83;5.33;;;21.00;96.50;;;;;;5066765;28;20483;-80
2022/06/15 07:41:10;;;;;;;5.30;4.90;;;21.10;96.50;;;;;;5065661;28;20530;-81
2022/06/15 07:43:39;;;;;;;7.47;6.03;;;21.00;98.00;;;;;;5066240;28;20471;-81
2022/06/15 07:46:06;;;;;;;6.50;4.80;;;21.10;97.40;;;;;;5066385;28;20951;-81
2022/06/15 07:51:26;;;;;;;7.33;4.70;;;21.30;96.00;;;;;;5066559;28;20429;-82
2022/06/15 07:53:52;;;;;;;6.77;5.87;;;21.30;96.60;;;;;;5066095;28;20452;-81
2022/06/15 07:56:21;;;;;;;5.30;4.87;;;21.20;97.00;;;;;;5067350;28;20463;-80
2022/06/15 07:58:47;;;;;;;7.90;5.07;;;21.40;97.00;;;;;;5066006;28;20477;-81
2022/06/15 08:01:14;;;;;;;6.93;5.60;;;21.60;96.10;;;;;;5065146;28;20498;-80
2022/06/15 08:03:41;;;;;;;6.77;4.83;;;21.70;95.50;;;;;;5064468;28;20450;-81
2022/06/15 08:06:08;;;;;;;4.77;4.23;;;21.70;95.10;;;;;;5066074;28;20458;-81
2022/06/15 08:08:35;;;;;;;6.97;5.13;;;21.80;96.10;;;;;;5065830;28;20489;-81
2022/06/15 08:11:02;;;;;;;6.30;5.40;;;22.00;96.30;;;;;;5065957;28;20448;-80
2022/06/15 08:13:30;;;;;;;4.60;4.20;;;22.10;96.90;;;;;;5063160;28;20447;-81
2022/06/15 08:15:57;;;;;;;4.67;4.27;;;22.10;95.40;;;;;;5058503;28;20453;-81
2022/06/15 08:18:28;;;;;;;5.27;4.77;;;22.10;95.30;;;;;;5058648;28;20468;-81
2022/06/15 08:20:58;;;;;;;5.73;4.77;;;22.30;95.30;;;;;;5058515;28;20475;-81
2022/06/15 08:23:29;;;;;;;6.47;4.70;;;22.40;95.00;;;;;;5058825;28;20449;-81
2022/06/15 08:25:59;;;;;;;5.00;4.50;;;22.60;95.50;;;;;;5061004;28;20443;-80
2022/06/15 08:28:29;;;;;;;6.27;5.60;;;22.70;95.90;;;;;;5061867;28;20550;-81
2022/06/15 08:30:57;;;;;;;5.10;4.57;;;22.60;94.20;;;;;;5061906;28;20553;-81
2022/06/15 08:33:25;;;;;;;16.23;7.57;;;22.60;94.20;;;;;;5062718;28;20463;-81
2022/06/15 08:35:51;;;;;;;14.70;9.23;;;22.80;94.60;;;;;;5063091;28;20451;-81
2022/06/15 08:38:21;;;;;;;8.73;5.67;;;22.90;95.30;;;;;;5063504;28;20468;-81
2022/06/15 08:40:50;;;;;;;9.50;6.33;;;23.10;93.70;;;;;;5064022;28;20846;-80
2022/06/15 08:43:30;;;;;;;7.80;4.90;;;23.20;93.10;;;;;;5063448;28;20447;-79
2022/06/15 08:46:05;;;;;;;4.33;3.93;;;23.20;92.10;;;;;;5064746;28;20813;-80
2022/06/15 08:48:44;;;;;;;4.33;3.93;;;23.30;91.70;;;;;;5064241;28;20476;-80
2022/06/15 08:51:16;;;;;;;4.90;4.50;;;23.30;92.40;;;;;;5063090;28;20456;-80
2022/06/15 08:53:51;;;;;;;4.60;4.17;;;23.30;91.20;;;;;;5064427;28;20506;-80
2022/06/15 08:56:23;;;;;;;4.87;4.30;;;23.40;92.00;;;;;;5063806;28;20447;-80
2022/06/15 08:58:58;;;;;;;4.93;4.40;;;23.50;91.10;;;;;;5064700;28;20480;-79
2022/06/15 09:01:31;;;;;;;4.53;4.13;;;23.60;90.80;;;;;;5064148;28;20548;-80
2022/06/15 09:04:09;;;;;;;5.33;4.93;;;23.60;91.00;;;;;;5064519;28;20455;-80
2022/06/15 09:06:47;;;;;;;5.10;4.60;;;23.70;90.80;;;;;;5064065;28;20455;-80
2022/06/15 09:09:29;;;;;;;4.83;4.50;;;23.70;91.30;;;;;;5064170;28;20491;-79
2022/06/15 09:14:58;;;;;;;5.47;4.13;;;23.90;91.30;;;;;;5057902;28;20415;-80
2022/06/15 09:17:29;;;;;;;5.50;5.10;;;24.10;90.60;;;;;;5058629;28;20490;-81
2022/06/15 09:20:01;;;;;;;5.60;5.10;;;24.10;90.50;;;;;;5058585;28;20543;-81
2022/06/15 09:22:34;;;;;;;4.90;4.50;;;24.20;90.70;;;;;;5058405;28;20869;-80
2022/06/15 09:25:07;;;;;;;4.83;4.43;;;24.40;91.50;;;;;;5057867;28;20478;-81
2022/06/15 09:27:39;;;;;;;9.27;5.40;;;24.40;89.70;;;;;;5057098;28;20441;-81
2022/06/15 09:30:09;;;;;;;4.97;4.57;;;24.50;90.30;;;;;;5059400;28;20466;-80
2022/06/15 09:32:41;;;;;;;6.20;5.60;;;24.80;90.10;;;;;;5064706;28;20436;-80
2022/06/15 09:35:13;;;;;;;5.93;5.43;;;24.90;87.80;;;;;;5058273;28;20459;-81
2022/06/15 09:37:42;;;;;;;5.30;4.90;;;24.90;89.80;;;;;;5057864;28;20433;-81
2022/06/15 09:40:10;;;;;;;5.20;4.80;;;25.10;86.60;;;;;;5057678;28;20864;-81
2022/06/15 09:42:49;;;;;;;5.30;4.80;;;25.10;86.90;;;;;;5057898;28;20818;-81
2022/06/15 09:45:23;;;;;;;4.60;4.20;;;25.30;86.20;;;;;;5058657;28;20442;-81
2022/06/15 09:48:00;;;;;;;5.83;5.33;;;25.20;83.50;;;;;;5057586;28;20442;-81
2022/06/15 09:50:40;;;;;;;5.00;4.13;;;25.30;82.20;;;;;;5058253;28;20446;-80
2022/06/15 09:53:33;;;;;;;4.90;4.60;;;25.50;81.80;;;;;;5058013;28;20438;-81
2022/06/15 09:56:03;;;;;;;5.53;5.03;;;25.70;83.70;;;;;;5061048;28;20926;-81
2022/06/15 09:58:36;;;;;;;5.07;4.77;;;25.90;86.60;;;;;;5058490;28;20471;-81
2022/06/15 10:01:02;;;;;;;5.83;4.00;;;26.20;81.70;;;;;;5057387;28;20465;-81
2022/06/15 10:03:33;;;;;;;5.30;4.80;;;26.20;80.30;;;;;;5057611;28;20463;-81
2022/06/15 10:06:08;;;;;;;4.57;4.20;;;26.30;81.40;;;;;;5057979;28;20444;-81
2022/06/15 10:08:35;;;;;;;4.93;4.47;;;26.30;78.80;;;;;;5056980;28;20833;-81
2022/06/15 10:11:05;;;;;;;4.50;4.13;;;26.60;80.90;;;;;;5057014;28;20456;-81
2022/06/15 10:13:35;;;;;;;6.40;5.20;;;26.90;81.20;;;;;;5057144;28;20491;-81
2022/06/15 10:16:04;;;;;;;4.87;4.30;;;27.00;77.00;;;;;;5057231;28;20970;-81
2022/06/15 10:18:37;;;;;;;4.10;3.80;;;27.20;76.10;;;;;;5056166;28;20476;-81
2022/06/15 10:21:10;;;;;;;6.73;5.20;;;27.30;76.70;;;;;;5065255;28;20473;-82
2022/06/15 10:23:54;;;;;;;4.97;4.67;;;27.40;78.00;;;;;;5057935;28;20439;-81
2022/06/15 10:26:29;;;;;;;5.73;5.00;;;27.40;73.90;;;;;;5057254;28;20814;-81
2022/06/15 10:28:57;;;;;;;5.50;4.40;;;27.60;76.60;;;;;;5056848;28;20829;-81
2022/06/15 10:31:30;;;;;;;6.20;5.20;;;27.90;75.50;;;;;;5057084;28;20443;-81
2022/06/15 10:33:58;;;;;;;5.17;4.53;;;28.10;71.40;;;;;;5057345;28;20444;-81
2022/06/15 10:36:31;;;;;;;6.90;4.50;;;28.20;72.00;;;;;;5056913;28;20457;-81
2022/06/15 10:39:04;;;;;;;5.20;4.80;;;28.10;68.20;;;;;;5056644;28;20470;-81
2022/06/15 10:41:46;;;;;;;4.77;4.37;;;28.10;70.80;;;;;;5056822;28;20494;-81
2022/06/15 10:44:14;;;;;;;4.60;4.27;;;28.00;68.90;;;;;;5056587;28;20485;-81
2022/06/15 10:46:53;;;;;;;4.20;3.80;;;28.10;71.20;;;;;;5056667;28;20551;-81
2022/06/15 10:49:22;;;;;;;4.97;4.57;;;28.20;68.40;;;;;;5056065;28;20476;-81
2022/06/15 10:51:50;;;;;;;5.07;4.67;;;28.50;70.30;;;;;;5060444;28;20960;-80
2022/06/15 11:02:06;;;;;;;4.67;4.37;;;28.80;65.80;;;;;;5073300;28;20447;-79
2022/06/15 11:03:09;;;;;;;4.80;4.40;;;29.60;70.40;;;;;;5057381;28;20477;-81
2022/06/15 11:05:39;;;;;;;4.50;4.20;;;30.00;63.20;;;;;;5057406;28;20431;-81
2022/06/15 11:08:13;;;;;;;5.13;4.83;;;30.40;62.40;;;;;;5056544;28;20450;-81
2022/06/15 11:10:43;;;;;;;5.17;4.60;;;30.70;61.00;;;;;;5066566;28;20438;-81
2022/06/15 11:13:29;;;;;;;5.83;4.50;;;30.70;58.30;;;;;;5057435;28;20964;-81
2022/06/15 11:18:43;;;;;;;4.93;3.73;;;31.20;59.80;;;;;;5056353;28;20452;-81
2022/06/15 11:21:15;;;;;;;4.70;4.33;;;31.60;56.90;;;;;;5056544;28;20528;-81
2022/06/15 11:23:52;;;;;;;5.77;5.40;;;31.80;54.30;;;;;;5056699;28;20489;-81
2022/06/15 11:29:34;;;;;;;5.60;3.50;;;32.20;52.50;;;;;;5056268;28;20449;-81
2022/06/15 11:32:13;;;;;;;4.77;4.40;;;32.50;52.30;;;;;;5056585;28;20450;-81
2022/06/15 11:34:52;;;;;;;6.00;4.30;;;33.10;52.50;;;;;;5056078;28;20950;-81
2022/06/15 11:37:26;;;;;;;4.50;4.20;;;33.30;50.20;;;;;;5057424;28;20443;-82
2022/06/15 11:39:58;;;;;;;4.40;4.00;;;33.20;50.70;;;;;;5056532;28;20468;-82
2022/06/15 11:42:25;;;;;;;7.60;4.50;;;33.20;50.00;;;;;;5055849;28;20988;-81
2022/06/15 11:44:52;;;;;;;4.37;4.00;;;33.80;52.00;;;;;;5056702;28;20452;-80
2022/06/15 11:47:30;;;;;;;4.30;3.90;;;33.90;48.20;;;;;;5057230;28;20444;-82
2022/06/15 11:50:11;;;;;;;4.30;3.83;;;34.30;47.30;;;;;;5057021;28;20468;-81
2022/06/15 11:52:54;;;;;;;4.60;4.20;;;34.60;45.40;;;;;;5061194;28;20440;-81
2022/06/15 11:55:33;;;;;;;4.90;4.60;;;34.40;44.30;;;;;;5060752;28;20447;-81
2022/06/15 11:58:26;;;;;;;3.67;3.40;;;33.90;44.10;;;;;;5060814;28;20444;-81
2022/06/15 12:01:01;;;;;;;4.57;4.27;;;33.60;44.10;;;;;;5067095;28;20488;-81
2022/06/15 12:03:45;;;;;;;4.70;4.40;;;33.80;45.00;;;;;;5060595;28;20428;-82
2022/06/15 12:06:22;;;;;;;4.40;4.10;;;34.60;45.00;;;;;;5060260;28;20446;-82
2022/06/15 12:08:58;;;;;;;4.33;4.03;;;35.10;42.70;;;;;;5060999;28;20845;-81
2022/06/15 12:14:25;;;;;;;4.80;4.50;;;35.20;41.70;;;;;;5061371;28;20482;-81
2022/06/15 12:16:58;;;;;;;4.70;4.30;;;35.20;41.00;;;;;;5061325;28;20448;-81
2022/06/15 12:19:34;;;;;;;4.90;4.60;;;35.50;42.90;;;;;;5061796;28;20468;-81
2022/06/15 12:22:07;;;;;;;3.80;3.47;;;36.20;42.50;;;;;;5061620;28;20480;-82
2022/06/15 12:24:45;;;;;;;5.27;4.27;;;37.00;41.00;;;;;;5063501;28;20460;-82
2022/06/15 12:27:17;;;;;;;3.90;3.60;;;37.10;39.70;;;;;;5063513;28;20428;-82
2022/06/15 12:29:51;;;;;;;3.90;3.57;;;37.80;40.00;;;;;;5062029;28;20490;-82
2022/06/15 12:32:33;;;;;;;5.30;4.47;;;38.00;38.80;;;;;;5060219;28;21016;-82
2022/06/15 12:35:31;;;;;;;4.70;4.40;;;38.50;37.80;;;;;;5061283;28;20448;-82
2022/06/15 12:38:03;;;;;;;4.43;4.13;;;38.00;35.00;;;;;;5024503;28;20456;-82
2022/06/15 12:40:35;;;;;;;4.37;3.97;;;38.20;35.70;;;;;;5060526;28;20433;-82
2022/06/15 12:43:11;;;;;;;4.47;4.17;;;38.50;36.90;;;;;;5060091;28;20459;-82
2022/06/15 12:45:43;;;;;;;5.17;4.77;;;39.10;38.10;;;;;;5060292;28;20433;-82
2022/06/15 12:48:16;;;;;;;4.80;4.40;;;39.90;38.00;;;;;;5059402;28;20828;-82
2022/06/15 12:50:50;;;;;;;4.30;4.00;;;40.60;35.70;;;;;;5069041;28;20435;-82
2022/06/15 12:53:29;;;;;;;4.10;3.90;;;40.60;35.20;;;;;;5060786;28;20458;-80
2022/06/15 12:56:07;;;;;;;4.43;4.03;;;41.20;34.80;;;;;;5060507;28;20433;-82
2022/06/15 12:58:43;;;;;;;4.53;4.20;;;41.60;33.40;;;;;;5061603;28;20478;-83
2022/06/15 13:01:23;;;;;;;4.63;4.33;;;42.20;33.10;;;;;;5060506;28;20432;-80
2022/06/15 13:04:06;;;;;;;5.77;5.27;;;42.50;31.20;;;;;;5060298;28;20870;-82
2022/06/15 13:06:35;;;;;;;5.30;4.40;;;42.80;30.20;;;;;;5063128;28;20463;-82
2022/06/15 13:09:09;;;;;;;4.70;4.40;;;42.80;29.80;;;;;;5062610;28;20490;-83
2022/06/15 13:11:59;;;;;;;4.23;4.03;;;42.80;29.50;;;;;;5063117;28;20557;-82
2022/06/15 13:14:30;;;;;;;5.20;4.70;;;42.90;29.70;;;;;;5062420;28;20463;-83
2022/06/15 13:17:11;;;;;;;4.27;3.97;;;42.60;29.50;;;;;;5067110;28;20830;-83
2022/06/15 13:19:40;;;;;;;4.90;4.60;;;42.40;30.80;;;;;;5063356;28;20472;-82
2022/06/15 13:22:14;;;;;;;4.37;4.07;;;42.40;28.90;;;;;;5062495;28;20436;-82
2022/06/15 13:24:58;;;;;;;4.20;3.93;;;42.20;28.90;;;;;;5062717;28;20452;-83
2022/06/15 13:27:30;;;;;;;4.77;4.37;;;42.00;28.90;;;;;;5058411;28;20459;-83